Time;durP1;ratioP1;P1;durP2;ratioP2;P2;SDS_P1;SDS_P2;PMS_P1;PMS_P2;Temp;Humidity;BMP_temperature;BMP_pressure;BME280_temperature;BME280_humidity;BME280_pressure;Samples;Min_cycle;Max_cycle;Signal;HPM_P1;HPM_P2
2022/04/27 00:01:24;;;;;;;2.20;1.52;;;;;;;7.88;69.19;99244.97;5126073;28;20039;-70
2022/04/27 00:03:56;;;;;;;3.25;1.20;;;;;;;7.91;69.04;99240.41;5125151;28;20059;-70
2022/04/27 00:06:28;;;;;;;2.10;1.20;;;;;;;7.89;69.03;99236.97;5125819;28;20222;-69
2022/04/27 00:09:02;;;;;;;1.80;1.40;;;;;;;7.61;68.67;99176.72;5125839;28;20291;-70
2022/04/27 00:11:34;;;;;;;1.92;1.30;;;;;;;7.88;69.52;99243.19;5126158;28;20043;-70
2022/04/27 00:14:07;;;;;;;2.00;1.30;;;;;;;7.90;69.07;99249.25;5125807;28;20246;-69
2022/04/27 00:16:39;;;;;;;1.50;1.10;;;;;;;7.92;68.54;99235.97;5125811;28;20299;-70
2022/04/27 00:19:11;;;;;;;1.95;1.30;;;;;;;7.92;68.35;99223.63;5125662;28;20039;-69
2022/04/27 00:21:43;;;;;;;3.13;1.40;;;;;;;7.90;68.80;99224.63;5126101;28;20283;-70
2022/04/27 00:24:17;;;;;;;2.22;1.65;;;;;;;7.92;68.58;99226.28;5126041;28;20332;-70
2022/04/27 00:26:51;;;;;;;1.75;1.30;;;;;;;7.92;69.20;99222.78;5126076;28;20214;-70
2022/04/27 00:29:24;;;;;;;1.83;1.20;;;;;;;6.76;68.61;99054.00;5125945;28;20044;-70
2022/04/27 00:31:56;;;;;;;2.22;1.48;;;;;;;7.91;68.57;99226.34;5125895;28;20043;-70
2022/04/27 00:34:28;;;;;;;1.77;1.17;;;;;;;7.91;68.66;99208.72;5125753;28;20039;-69
2022/04/27 00:37:00;;;;;;;2.40;1.80;;;;;;;7.81;68.36;99190.75;5125647;28;20055;-70
2022/04/27 00:39:36;;;;;;;1.75;1.20;;;;;;;7.92;68.68;99209.59;5125597;28;20089;-71
2022/04/27 00:42:17;;;;;;;2.30;1.48;;;;;;;7.00;68.79;99089.81;5125608;28;20181;-71
2022/04/27 00:44:49;;;;;;;2.17;1.30;;;;;;;7.86;68.66;99215.16;5124857;28;20155;-70
2022/04/27 00:47:22;;;;;;;1.70;1.20;;;;;;;7.85;68.72;99229.28;5125574;28;20043;-70
2022/04/27 00:49:57;;;;;;;4.80;1.20;;;;;;;7.80;69.19;99223.34;5125613;28;20197;-70
2022/04/27 00:52:30;;;;;;;1.92;1.27;;;;;;;7.77;69.20;99221.72;5127188;28;20088;-71
2022/04/27 00:55:05;;;;;;;1.42;1.10;;;;;;;7.77;69.32;99223.50;5129470;28;20177;-70
2022/04/27 00:57:39;;;;;;;2.20;1.23;;;;;;;7.32;69.62;99149.00;5129784;28;20226;-70
2022/04/27 01:00:12;;;;;;;2.00;1.40;;;;;;;7.76;69.23;99211.22;5129628;28;20050;-70
2022/04/27 01:02:44;;;;;;;2.25;1.30;;;;;;;6.59;68.73;99056.53;5129584;28;20044;-69
2022/04/27 01:05:15;;;;;;;2.15;1.40;;;;;;;7.82;68.41;99216.22;5129622;28;20040;-70
2022/04/27 01:07:46;;;;;;;1.77;1.20;;;;;;;7.85;69.05;99218.72;5128545;28;20039;-70
2022/04/27 01:10:17;;;;;;;1.63;1.30;;;;;;;7.89;69.04;99209.72;5128444;28;20082;-69
2022/04/27 01:12:45;;;;;;;2.03;1.30;;;;;;;7.84;68.63;99207.31;5128411;28;20056;-71
2022/04/27 01:15:31;;;;;;;2.22;1.63;;;;;;;7.84;69.74;99217.88;5129387;28;20046;-70
2022/04/27 01:18:04;;;;;;;1.88;1.20;;;;;;;7.79;69.20;99208.44;5129216;28;20081;-70
2022/04/27 01:20:40;;;;;;;2.13;1.38;;;;;;;7.88;68.54;99222.06;5128465;28;20341;-70
2022/04/27 01:23:13;;;;;;;1.95;1.40;;;;;;;7.90;68.55;99216.72;5129312;28;20081;-70
2022/04/27 01:25:52;;;;;;;1.95;1.20;;;;;;;7.91;69.34;99239.53;5129183;28;20040;-70
2022/04/27 01:28:26;;;;;;;1.83;1.27;;;;;;;7.84;69.09;99235.47;5128634;28;20039;-70
2022/04/27 01:30:59;;;;;;;1.63;1.15;;;;;;;7.83;69.41;99245.16;5127924;28;20054;-70
2022/04/27 01:33:34;;;;;;;1.52;1.10;;;;;;;7.28;68.59;99168.50;5128612;28;20040;-70
2022/04/27 01:36:10;;;;;;;1.83;1.20;;;;;;;7.54;69.70;99177.06;5128580;28;20040;-70
2022/04/27 01:38:44;;;;;;;2.67;1.30;;;;;;;7.89;68.63;99230.84;5128426;28;20062;-70
2022/04/27 01:41:16;;;;;;;1.77;1.20;;;;;;;7.93;68.97;99235.91;5128610;28;20148;-70
2022/04/27 01:43:49;;;;;;;1.70;1.25;;;;;;;7.64;68.48;99175.72;5128619;28;20089;-71
2022/04/27 01:46:21;;;;;;;1.65;1.20;;;;;;;7.93;68.72;99229.78;5128295;28;20039;-71
2022/04/27 01:48:53;;;;;;;2.05;1.30;;;;;;;7.96;68.40;99233.13;5128277;28;20081;-70
2022/04/27 01:54:18;;;;;;;1.60;1.10;;;;;;;7.89;68.38;99247.53;5128392;28;20084;-70
2022/04/27 01:56:52;;;;;;;1.42;1.10;;;;;;;7.88;68.47;99250.25;5128412;28;20044;-70
2022/04/27 01:59:24;;;;;;;1.67;1.10;;;;;;;7.60;68.87;99190.81;5128074;28;20114;-70
2022/04/27 02:01:57;;;;;;;1.30;1.10;;;;;;;7.89;68.78;99233.47;5127511;28;20096;-71
2022/04/27 02:04:29;;;;;;;2.20;1.35;;;;;;;7.98;68.46;99246.25;5127512;28;20035;-70
2022/04/27 02:07:04;;;;;;;1.88;1.20;;;;;;;8.00;68.68;99241.75;5127967;28;20085;-71
2022/04/27 02:09:36;;;;;;;;;;;;;;;7.89;69.87;99236.97;5127547;28;20051;-70
2022/04/27 02:12:09;;;;;;;1.88;1.20;;;;;;;7.84;69.13;99262.72;5127908;28;19915;-70
2022/04/27 02:14:42;;;;;;;1.67;1.23;;;;;;;7.85;68.72;99240.69;5127846;28;20040;-70
2022/04/27 02:17:14;;;;;;;1.40;1.00;;;;;;;7.64;68.92;99229.31;5127707;28;20044;-70
2022/04/27 02:19:46;;;;;;;2.20;1.40;;;;;;;7.88;69.07;99248.47;5127555;28;20039;-70
2022/04/27 02:22:19;;;;;;;1.85;1.20;;;;;;;7.87;69.11;99244.09;5127099;28;20048;-70
2022/04/27 02:24:52;;;;;;;3.22;1.10;;;;;;;7.86;68.87;99246.81;5127550;28;20036;-70
2022/04/27 02:27:24;;;;;;;2.15;1.30;;;;;;;7.85;69.32;99247.75;5126982;28;20035;-71
2022/04/27 02:29:57;;;;;;;1.30;1.10;;;;;;;7.60;68.87;99205.78;5127410;28;20085;-70
2022/04/27 02:32:29;;;;;;;1.92;1.30;;;;;;;7.80;68.86;99242.69;5127629;28;20085;-71
2022/04/27 02:35:01;;;;;;;1.65;1.15;;;;;;;7.84;68.82;99240.75;5127391;28;20040;-70
2022/04/27 02:37:35;;;;;;;1.75;1.20;;;;;;;7.85;68.98;99237.19;5126524;28;20070;-70
2022/04/27 02:40:09;;;;;;;3.00;1.20;;;;;;;7.83;68.95;99245.16;5127126;28;20080;-70
2022/04/27 02:42:42;;;;;;;2.67;1.20;;;;;;;7.88;68.85;99250.25;5127160;28;20084;-69
2022/04/27 02:45:14;;;;;;;2.05;1.30;;;;;;;7.84;68.91;99246.03;5127146;28;20310;-70
2022/04/27 02:47:44;;;;;;;1.80;1.20;;;;;;;6.37;68.76;99014.50;5128144;28;20188;-71
2022/04/27 02:53:05;;;;;;;2.30;1.50;;;;;;;7.92;69.01;99243.91;5127030;28;20043;-70
2022/04/27 02:55:37;;;;;;;2.55;1.63;;;;;;;7.92;68.47;99257.94;5126318;28;20051;-70
2022/04/27 02:58:09;;;;;;;2.10;1.20;;;;;;;7.91;68.91;99261.50;5126913;28;20088;-71
2022/04/27 03:00:44;;;;;;;2.20;1.45;;;;;;;7.89;68.67;99262.50;5126788;28;20043;-70
2022/04/27 03:03:17;;;;;;;2.35;1.40;;;;;;;6.86;68.85;99091.38;5126784;28;20065;-70
2022/04/27 03:05:49;;;;;;;2.33;1.48;;;;;;;7.91;69.04;99253.59;5126724;28;20081;-70
2022/04/27 03:08:22;;;;;;;2.67;1.58;;;;;;;7.92;68.83;99255.31;5126750;28;20140;-70
2022/04/27 03:10:54;;;;;;;2.40;1.48;;;;;;;7.90;69.37;99264.22;5125916;28;20051;-69
2022/04/27 03:13:26;;;;;;;4.05;1.77;;;;;;;7.85;69.29;99264.44;5126631;28;20039;-70
2022/04/27 03:15:59;;;;;;;2.08;1.33;;;;;;;7.89;69.33;99271.28;5125038;28;20051;-70
2022/04/27 03:18:31;;;;;;;2.25;1.60;;;;;;;7.56;69.25;99218.25;5126559;28;20294;-71
2022/04/27 03:21:03;;;;;;;2.30;1.60;;;;;;;7.67;69.05;99221.28;5126479;28;20044;-70
2022/04/27 03:23:38;;;;;;;2.60;1.60;;;;;;;7.97;69.10;99265.66;5125779;28;20035;-70
2022/04/27 03:26:10;;;;;;;2.72;1.70;;;;;;;7.97;69.13;99268.28;5125861;28;20114;-70
2022/04/27 03:28:42;;;;;;;2.47;1.77;;;;;;;7.97;68.94;99273.56;5126715;28;20077;-70
2022/04/27 03:31:15;;;;;;;2.38;1.70;;;;;;;7.66;69.40;99227.47;5125813;28;20043;-70
2022/04/27 03:33:48;;;;;;;3.25;2.28;;;;;;;7.59;69.55;99239.22;5126653;28;20081;-70
2022/04/27 03:36:20;;;;;;;4.45;2.45;;;;;;;7.95;69.19;99273.63;5126425;28;20112;-72
2022/04/27 03:38:54;;;;;;;2.88;1.90;;;;;;;7.94;69.20;99279.00;5126663;28;20088;-71
2022/04/27 03:41:28;;;;;;;3.53;1.65;;;;;;;7.98;68.99;99277.91;5126463;28;20047;-70
2022/04/27 03:44:00;;;;;;;3.92;1.90;;;;;;;8.03;69.00;99271.50;5126184;28;20296;-70
2022/04/27 03:46:32;;;;;;;2.80;2.00;;;;;;;8.02;69.07;99279.50;5126391;28;20287;-70
2022/04/27 03:49:04;;;;;;;4.10;1.92;;;;;;;8.00;69.08;99276.91;5125663;28;20085;-70
2022/04/27 03:51:36;;;;;;;2.85;2.40;;;;;;;7.97;69.06;99286.75;5126025;28;20043;-70
2022/04/27 03:54:10;;;;;;;3.13;2.10;;;;;;;6.81;69.23;99110.00;5126237;28;20085;-70
2022/04/27 03:56:42;;;;;;;2.60;1.98;;;;;;;7.94;69.36;99303.59;5126294;28;20040;-70
2022/04/27 03:59:15;;;;;;;3.53;2.17;;;;;;;7.98;69.27;99304.31;5126193;28;20035;-70
2022/04/27 04:01:48;;;;;;;2.90;1.98;;;;;;;7.71;69.11;99258.91;5125830;28;20283;-70
2022/04/27 04:04:20;;;;;;;2.75;2.00;;;;;;;7.69;69.38;99255.50;5125969;28;20245;-70
2022/04/27 04:06:52;;;;;;;3.08;2.10;;;;;;;7.68;69.05;99267.81;5125925;28;20250;-71
2022/04/27 04:09:26;;;;;;;3.47;2.20;;;;;;;7.97;69.58;99319.28;5126129;28;20081;-70
2022/04/27 04:11:58;;;;;;;3.13;2.40;;;;;;;8.00;69.25;99326.22;5126108;28;20039;-70
2022/04/27 04:14:30;;;;;;;3.60;2.60;;;;;;;7.97;69.31;99329.84;5126002;28;20097;-71
2022/04/27 04:17:02;;;;;;;4.88;2.38;;;;;;;7.56;69.06;99256.97;5126179;28;20086;-70
2022/04/27 04:19:35;;;;;;;3.50;1.90;;;;;;;7.99;69.27;99338.56;5126123;28;20039;-70
2022/04/27 04:22:08;;;;;;;4.05;2.20;;;;;;;8.00;69.07;99334.97;5125218;28;20047;-71
2022/04/27 04:28:29;;;;;;;3.92;2.58;;;;;;;7.99;69.55;99337.69;5124848;28;20047;-70
2022/04/27 04:30:24;;;;;;;3.22;2.08;;;;;;;7.90;69.49;99351.31;5128706;28;20035;-70
2022/04/27 04:32:54;;;;;;;3.33;2.15;;;;;;;7.91;69.54;99345.94;5129553;28;20092;-71
2022/04/27 04:35:24;;;;;;;2.90;2.20;;;;;;;7.95;69.35;99346.66;5129734;28;20040;-71
2022/04/27 04:37:55;;;;;;;3.90;2.70;;;;;;;7.69;69.06;99311.75;5128650;28;20039;-71
2022/04/27 04:40:26;;;;;;;3.30;2.38;;;;;;;7.97;69.28;99347.47;5129829;28;20047;-71
2022/04/27 04:42:54;;;;;;;3.88;2.65;;;;;;;7.98;69.13;99350.03;5130092;28;20081;-71
2022/04/27 04:45:25;;;;;;;3.42;2.30;;;;;;;8.02;69.21;99345.47;5129719;28;20040;-70
2022/04/27 04:47:55;;;;;;;3.42;2.60;;;;;;;8.07;69.19;99363.75;5129658;28;20058;-71
2022/04/27 04:50:25;;;;;;;3.80;2.40;;;;;;;8.11;68.67;99366.19;5129774;28;20107;-70
2022/04/27 04:52:55;;;;;;;4.03;2.92;;;;;;;8.09;68.80;99364.53;5128897;28;20047;-71
2022/04/27 04:55:27;;;;;;;3.78;2.70;;;;;;;8.13;68.67;99382.81;5128186;28;20315;-71
2022/04/27 04:57:55;;;;;;;4.15;3.00;;;;;;;8.16;68.43;99382.66;5129507;28;20044;-70
2022/04/27 05:00:26;;;;;;;3.13;2.38;;;;;;;7.03;68.34;99239.88;5129379;28;20043;-70
2022/04/27 05:02:55;;;;;;;4.40;2.60;;;;;;;8.14;68.71;99396.88;5129360;28;20040;-70
2022/04/27 05:05:26;;;;;;;3.47;2.58;;;;;;;8.15;68.66;99396.78;5128345;28;20051;-70
2022/04/27 05:07:56;;;;;;;4.03;2.80;;;;;;;8.19;68.31;99401.00;5129276;28;20050;-70
2022/04/27 05:10:27;;;;;;;4.47;2.97;;;;;;;8.18;68.61;99406.34;5129326;28;20035;-71
2022/04/27 05:12:56;;;;;;;2.92;2.10;;;;;;;8.24;68.38;99409.59;5129238;28;20067;-70
2022/04/27 05:15:26;;;;;;;3.67;2.60;;;;;;;8.24;68.49;99409.59;5129193;28;20045;-71
2022/04/27 05:17:56;;;;;;;6.43;2.50;;;;;;;8.29;68.23;99420.78;5129130;28;20115;-71
2022/04/27 05:20:26;;;;;;;4.13;2.72;;;;;;;8.31;68.45;99426.88;5129035;28;20043;-71
2022/04/27 05:22:56;;;;;;;2.90;2.20;;;;;;;8.32;68.04;99425.09;5128134;28;20099;-70
2022/04/27 05:25:28;;;;;;;3.78;2.80;;;;;;;8.33;67.87;99427.66;5127866;28;20047;-70
2022/04/27 05:27:57;;;;;;;7.32;3.42;;;;;;;8.30;68.03;99430.44;5129217;28;20042;-71
2022/04/27 05:33:18;;;;;;;3.72;2.45;;;;;;;8.28;68.10;99431.44;5127997;28;20096;-71
2022/04/27 05:35:50;;;;;;;4.50;3.17;;;;;;;8.30;67.90;99441.00;5128489;28;20085;-70
2022/04/27 05:38:23;;;;;;;5.97;2.50;;;;;;;8.31;68.30;99442.72;5127542;28;20084;-71
2022/04/27 05:40:56;;;;;;;4.85;2.58;;;;;;;8.38;67.86;99440.66;5128727;27;20040;-71
2022/04/27 05:43:28;;;;;;;4.13;3.17;;;;;;;8.45;67.63;99446.50;5128217;28;20081;-71
2022/04/27 05:46:00;;;;;;;3.47;2.83;;;;;;;7.30;67.38;99292.34;5128206;28;20039;-71
2022/04/27 05:48:33;;;;;;;4.07;2.63;;;;;;;7.52;67.44;99327.44;5128218;28;20043;-71
2022/04/27 05:51:06;;;;;;;4.72;2.63;;;;;;;8.37;67.30;99470.63;5128568;28;20035;-71
2022/04/27 05:53:41;;;;;;;3.10;2.35;;;;;;;8.35;67.53;99456.63;5128442;28;20156;-70
2022/04/27 05:56:15;;;;;;;3.35;2.40;;;;;;;8.38;67.39;99461.78;5128146;28;20043;-70
2022/04/27 05:58:47;;;;;;;4.07;2.77;;;;;;;8.36;67.60;99458.34;5128477;28;20196;-71
2022/04/27 06:01:20;;;;;;;3.72;2.97;;;;;;;8.35;67.71;99464.56;5128214;27;20382;-70
2022/04/27 06:03:53;;;;;;;2.95;1.90;;;;;;;8.37;67.58;99465.34;5128158;28;20039;-70
2022/04/27 06:06:25;;;;;;;3.47;2.53;;;;;;;8.32;67.76;99467.34;5128143;28;20112;-69
2022/04/27 06:08:58;;;;;;;3.42;2.45;;;;;;;8.30;67.69;99461.25;5127888;28;20039;-69
2022/04/27 06:11:32;;;;;;;3.65;2.65;;;;;;;8.27;67.78;99464.91;5127685;28;20044;-69
2022/04/27 06:14:04;;;;;;;3.03;2.17;;;;;;;8.26;67.78;99465.81;5126900;28;20039;-70
2022/04/27 06:16:36;;;;;;;4.82;2.10;;;;;;;7.89;67.72;99405.00;5127455;28;20108;-70
2022/04/27 06:19:09;;;;;;;3.75;2.63;;;;;;;8.24;67.98;99464.16;5127284;28;20043;-70
2022/04/27 06:21:41;;;;;;;4.05;2.35;;;;;;;8.27;67.75;99471.97;5126581;28;20058;-70
2022/04/27 06:24:14;;;;;;;2.92;2.15;;;;;;;8.25;67.80;99466.75;5127546;28;20040;-70
2022/04/27 06:26:47;;;;;;;4.38;2.28;;;;;;;8.19;68.19;99468.78;5127191;28;20239;-70
2022/04/27 06:29:20;;;;;;;3.20;1.92;;;;;;;8.21;68.04;99469.59;5127432;28;20043;-70
2022/04/27 06:31:52;;;;;;;5.38;2.47;;;;;;;8.24;67.84;99464.16;5127045;28;20036;-70
2022/04/27 06:34:24;;;;;;;2.78;2.20;;;;;;;8.25;67.94;99466.75;5127430;28;20040;-71
2022/04/27 06:36:56;;;;;;;2.97;2.00;;;;;;;8.26;67.67;99467.59;5127078;28;20043;-71
2022/04/27 06:39:29;;;;;;;3.45;2.25;;;;;;;8.27;67.76;99467.53;5127404;28;20040;-71
2022/04/27 06:42:03;;;;;;;2.88;1.90;;;;;;;8.31;67.78;99462.97;5126717;28;20096;-68
2022/04/27 06:44:35;;;;;;;3.33;2.20;;;;;;;8.30;67.85;99461.25;5127331;28;20089;-70
2022/04/27 06:47:07;;;;;;;3.40;2.22;;;;;;;8.05;67.84;99416.59;5127281;28;20428;-71
2022/04/27 06:49:40;;;;;;;3.08;2.10;;;;;;;8.35;67.68;99465.41;5127497;28;20039;-71
2022/04/27 06:52:12;;;;;;;3.10;2.35;;;;;;;8.13;67.52;99416.25;5127223;28;20088;-71
2022/04/27 06:54:44;;;;;;;3.65;2.47;;;;;;;8.41;67.55;99456.34;5127178;28;20081;-70
2022/04/27 06:57:18;;;;;;;4.35;1.90;;;;;;;8.46;67.87;99457.00;5127100;28;20043;-71
2022/04/27 06:59:50;;;;;;;3.33;2.20;;;;;;;8.54;67.72;99452.25;5127223;28;20054;-71
2022/04/27 07:02:22;;;;;;;3.67;2.55;;;;;;;8.59;67.32;99449.38;5126184;28;20296;-70
2022/04/27 07:04:59;;;;;;;5.20;3.22;;;;;;;8.61;67.22;99458.09;5126728;27;20080;-71
2022/04/27 07:07:32;;;;;;;3.40;2.42;;;;;;;8.62;67.59;99457.19;5126962;28;20288;-72
2022/04/27 07:10:05;;;;;;;3.40;2.28;;;;;;;8.33;67.20;99406.53;5126663;28;20242;-71
2022/04/27 07:12:39;;;;;;;4.50;2.47;;;;;;;8.67;67.50;99457.81;5126129;28;20092;-71
2022/04/27 07:15:11;;;;;;;3.25;2.40;;;;;;;8.73;67.59;99460.19;5126679;28;20084;-71
2022/04/27 07:17:44;;;;;;;3.58;2.65;;;;;;;8.76;67.60;99461.84;5126556;28;20085;-71
2022/04/27 07:20:16;;;;;;;3.60;2.33;;;;;;;8.82;67.26;99461.53;5126654;28;20352;-71
2022/04/27 07:22:48;;;;;;;5.28;2.70;;;;;;;8.84;66.82;99457.91;5126631;28;20291;-71
2022/04/27 07:25:20;;;;;;;3.25;2.50;;;;;;;8.86;67.03;99463.97;5125701;28;20200;-71
2022/04/27 07:27:54;;;;;;;4.40;2.33;;;;;;;8.55;67.24;99411.69;5126682;28;20080;-71
2022/04/27 07:30:23;;;;;;;4.00;2.63;;;;;;;8.83;67.03;99458.84;5126304;28;20043;-71
2022/04/27 07:32:53;;;;;;;3.47;2.33;;;;;;;8.90;67.19;99470.84;5126709;28;20039;-71
2022/04/27 07:35:23;;;;;;;3.40;2.53;;;;;;;8.92;67.00;99476.91;5125833;28;20340;-71
2022/04/27 07:37:53;;;;;;;3.88;2.88;;;;;;;8.97;67.03;99476.69;5126034;28;20059;-71
2022/04/27 07:40:23;;;;;;;3.88;2.55;;;;;;;8.70;66.88;99436.53;5125753;28;20061;-71
2022/04/27 07:42:55;;;;;;;2.90;2.03;;;;;;;9.04;67.08;99479.91;5126431;28;20283;-71
2022/04/27 07:45:23;;;;;;;3.55;2.30;;;;;;;9.05;66.82;99487.75;5125793;28;20085;-71
2022/04/27 07:47:54;;;;;;;4.07;2.60;;;;;;;9.04;66.88;99499.28;5126435;28;20063;-71
2022/04/27 07:50:24;;;;;;;3.92;2.72;;;;;;;8.75;66.81;99450.41;5126341;28;20050;-71
2022/04/27 07:52:56;;;;;;;4.88;2.30;;;;;;;9.09;66.90;99497.28;5126394;28;20070;-71
2022/04/27 07:55:24;;;;;;;3.38;2.42;;;;;;;9.12;66.94;99498.91;5125928;28;20055;-71
2022/04/27 07:57:55;;;;;;;4.63;2.58;;;;;;;8.86;66.79;99449.91;5125539;28;20034;-71
2022/04/27 08:00:24;;;;;;;3.88;2.47;;;;;;;9.16;66.94;99503.13;5126085;28;20043;-71
2022/04/27 08:02:55;;;;;;;3.88;2.50;;;;;;;9.18;66.86;99507.41;5125456;28;20103;-71
2022/04/27 08:05:25;;;;;;;4.25;2.75;;;;;;;9.22;67.19;99539.91;5126349;28;20035;-71
2022/04/27 08:07:54;;;;;;;3.63;2.70;;;;;;;9.19;67.14;99514.41;5125790;28;20046;-71
2022/04/27 08:10:25;;;;;;;4.40;3.20;;;;;;;9.17;67.31;99510.13;5125641;28;20088;-71
2022/04/27 08:12:56;;;;;;;5.03;2.83;;;;;;;8.90;67.58;99464.69;5125773;28;20047;-71
2022/04/27 08:15:26;;;;;;;4.03;3.05;;;;;;;9.23;67.57;99517.81;5126046;28;20110;-71
2022/04/27 08:17:58;;;;;;;6.05;3.75;;;;;;;9.25;67.42;99513.31;5125303;28;20039;-71
2022/04/27 08:23:24;;;;;;;4.65;2.92;;;;;;;9.06;67.33;99475.41;5125792;28;20084;-71
2022/04/27 08:25:59;;;;;;;5.38;3.28;;;;;;;9.35;67.49;99521.66;5125809;28;20057;-71
2022/04/27 08:28:33;;;;;;;3.85;2.95;;;;;;;9.39;67.72;99520.59;5125321;28;20043;-71
2022/04/27 08:31:07;;;;;;;5.95;3.20;;;;;;;9.42;67.26;99525.75;5125952;28;20349;-70
2022/04/27 08:33:39;;;;;;;5.07;3.15;;;;;;;8.15;67.41;99324.66;5125733;28;20090;-69
2022/04/27 08:36:11;;;;;;;4.28;3.35;;;;;;;9.44;67.41;99527.41;5125442;28;20084;-70
2022/04/27 08:38:43;;;;;;;6.60;3.60;;;;;;;9.44;67.42;99532.69;5125892;28;20043;-70
2022/04/27 08:41:16;;;;;;;4.38;3.38;;;;;;;9.52;67.27;99527.91;5125785;28;20040;-69
2022/04/27 08:43:49;;;;;;;4.80;3.25;;;;;;;9.47;67.79;99529.91;5124713;28;20231;-70
2022/04/27 08:46:24;;;;;;;5.03;3.65;;;;;;;9.46;67.58;99527.34;5125760;28;20036;-70
2022/04/27 08:48:56;;;;;;;5.70;2.95;;;;;;;9.43;67.40;99528.34;5125504;28;20055;-70
2022/04/27 08:51:29;;;;;;;5.82;3.28;;;;;;;9.43;67.56;99522.19;5125419;28;20058;-69
2022/04/27 08:54:02;;;;;;;4.38;3.17;;;;;;;9.53;67.17;99518.16;5124726;28;20299;-70
2022/04/27 08:56:35;;;;;;;5.63;3.75;;;;;;;8.81;67.23;99394.63;5125383;28;20044;-70
2022/04/27 08:59:09;;;;;;;6.75;3.72;;;;;;;9.72;66.73;99529.56;5124865;28;20047;-70
2022/04/27 09:01:41;;;;;;;3.70;3.00;;;;;;;9.74;66.76;99525.06;5124472;28;20043;-71
2022/04/27 09:04:15;;;;;;;8.52;4.43;;;;;;;9.47;66.66;99505.22;5124371;28;20248;-70
2022/04/27 09:06:49;;;;;;;4.13;3.03;;;;;;;9.78;66.61;99526.63;5125267;28;20092;-70
2022/04/27 09:09:37;;;;;;;5.70;3.53;;;;;;;9.83;66.97;99529.91;5125695;28;20044;-70
2022/04/27 09:12:15;;;;;;;6.25;4.53;;;;;;;9.58;66.51;99490.56;5107609;28;20515;-70
2022/04/27 09:14:49;;;;;;;4.63;3.72;;;;;;;9.86;66.60;99535.03;5127687;28;20044;-70
2022/04/27 09:23:04;;;;;;;6.28;3.70;;;;;;;9.73;66.25;99491.59;5128562;28;20035;-70
2022/04/27 09:25:35;;;;;;;4.95;3.95;;;;;;;10.04;66.17;99529.78;5128722;27;20039;-69
2022/04/27 09:28:04;;;;;;;4.70;3.70;;;;;;;9.77;66.18;99501.09;5128932;28;20031;-70
2022/04/27 09:30:35;;;;;;;4.93;3.83;;;;;;;9.94;66.22;99535.53;5128910;28;20039;-70
2022/04/27 09:33:04;;;;;;;7.30;4.13;;;;;;;9.46;66.33;99438.25;5128795;28;20043;-70
2022/04/27 09:35:35;;;;;;;8.18;3.75;;;;;;;8.83;65.83;99373.41;5128853;28;20042;-70
2022/04/27 09:38:23;;;;;;;4.47;3.40;;;;;;;9.72;66.42;99495.16;5127464;28;20044;-70
2022/04/27 09:40:57;;;;;;;4.97;3.95;;;;;;;9.84;66.78;99539.56;5128112;28;20166;-70
2022/04/27 09:43:42;;;;;;;5.80;3.70;;;;;;;9.57;66.74;99487.97;5127985;28;20080;-70
2022/04/27 09:46:17;;;;;;;;;;;;;;;9.81;67.27;99531.78;5127762;28;20088;-70
2022/04/27 09:49:08;;;;;;;5.85;3.65;;;;;;;9.87;66.90;99536.75;5128414;28;19961;-69
2022/04/27 09:51:48;;;;;;;4.22;3.30;;;;;;;9.52;67.04;99472.34;5128154;28;20081;-70
2022/04/27 09:54:23;;;;;;;4.10;3.17;;;;;;;9.89;67.03;99534.03;5127428;28;20039;-70
2022/04/27 09:56:57;;;;;;;5.38;3.78;;;;;;;9.12;67.06;99417.81;5128031;28;20065;-70
2022/04/27 09:59:31;;;;;;;5.40;3.60;;;;;;;9.61;67.26;99490.41;5127997;28;20043;-69
2022/04/27 10:02:08;;;;;;;4.85;3.65;;;;;;;9.62;67.04;99484.19;5128338;28;20044;-70
2022/04/27 10:04:43;;;;;;;5.60;4.22;;;;;;;8.83;66.75;99376.91;5126956;28;20047;-70
2022/04/27 10:07:15;;;;;;;;;;;;;;;9.93;66.97;99528.50;5128344;28;20035;-69
2022/04/27 10:09:49;;;;;;;5.60;3.75;;;;;;;9.93;66.89;99530.31;5127720;28;19961;-70
2022/04/27 10:12:21;;;;;;;4.78;3.63;;;;;;;9.92;66.70;99536.53;5127748;28;20080;-70
2022/04/27 10:14:54;;;;;;;4.97;3.95;;;;;;;9.68;66.76;99484.81;5128020;28;20047;-70
2022/04/27 10:17:28;;;;;;;4.15;3.22;;;;;;;9.68;66.62;99490.09;5126903;28;20036;-71
2022/04/27 10:20:00;;;;;;;6.00;4.32;;;;;;;9.66;66.92;99529.88;5127624;28;20039;-70
2022/04/27 10:22:34;;;;;;;5.35;3.80;;;;;;;9.97;66.70;99536.31;5127325;28;20077;-70
2022/04/27 10:25:09;;;;;;;4.60;4.07;;;;;;;9.83;66.78;99515.81;5126995;28;20044;-70
2022/04/27 10:27:41;;;;;;;5.40;4.20;;;;;;;9.98;66.68;99533.59;5127400;28;20043;-70
2022/04/27 10:30:15;;;;;;;5.78;4.75;;;;;;;9.52;66.57;99445.03;5127604;28;20042;-70
2022/04/27 10:32:51;;;;;;;5.05;4.25;;;;;;;10.10;66.53;99534.75;5127189;27;20101;-70
2022/04/27 10:35:33;;;;;;;4.55;3.55;;;;;;;10.13;66.63;99531.97;5127650;28;20040;-70
2022/04/27 10:38:05;;;;;;;5.95;3.55;;;;;;;9.89;66.56;99507.56;5126983;28;20063;-70
2022/04/27 10:40:34;;;;;;;5.75;4.25;;;;;;;10.19;66.62;99521.06;5127305;28;20111;-70
2022/04/27 10:43:13;;;;;;;5.40;4.40;;;;;;;10.24;66.54;99517.22;5126259;28;20035;-69
2022/04/27 10:45:47;;;;;;;5.20;3.83;;;;;;;10.28;66.55;99520.59;5126586;28;20043;-70
2022/04/27 10:48:27;;;;;;;4.80;4.10;;;;;;;10.32;66.60;99521.28;5126387;28;20039;-70
2022/04/27 10:51:01;;;;;;;4.05;3.42;;;;;;;10.37;66.55;99524.56;5127395;28;20040;-70
2022/04/27 10:53:40;;;;;;;6.50;4.60;;;;;;;10.15;66.53;99472.69;5127114;28;20040;-70
2022/04/27 10:56:22;;;;;;;6.78;5.38;;;;;;;10.54;66.39;99511.28;5126551;28;20040;-70
2022/04/27 10:58:55;;;;;;;6.30;3.95;;;;;;;10.65;65.71;99516.00;5127272;28;20085;-70
2022/04/27 11:01:32;;;;;;;5.72;4.03;;;;;;;10.62;65.92;99535.59;5126736;28;20036;-70
2022/04/27 11:04:08;;;;;;;5.13;4.43;;;;;;;9.63;65.53;99344.78;5126005;28;20092;-70
2022/04/27 11:07:22;;;;;;;4.80;3.42;;;;;;;10.37;65.54;99467.13;5126998;28;20333;-69
2022/04/27 11:10:16;;;;;;;4.22;3.15;;;;;;;10.69;65.45;99515.78;5112004;28;20315;-70
2022/04/27 11:12:50;;;;;;;4.38;3.95;;;;;;;10.70;65.45;99508.69;5126551;28;20051;-69
2022/04/27 11:15:24;;;;;;;4.93;3.50;;;;;;;10.74;65.43;99516.38;5126569;28;20048;-68
2022/04/27 11:18:00;;;;;;;4.68;3.65;;;;;;;10.81;65.24;99512.50;5126873;28;20045;-69
2022/04/27 11:20:35;;;;;;;4.10;3.38;;;;;;;10.92;64.66;99511.91;5126712;28;20036;-69
2022/04/27 11:23:09;;;;;;;5.30;3.33;;;;;;;11.06;64.65;99508.53;5126539;28;20089;-69
2022/04/27 11:25:41;;;;;;;4.95;4.13;;;;;;;11.13;64.07;99493.97;5126293;28;20044;-69
2022/04/27 11:28:14;;;;;;;4.95;3.72;;;;;;;11.08;63.76;99458.91;5126385;28;20349;-69
2022/04/27 11:30:47;;;;;;;4.32;3.25;;;;;;;11.42;63.50;99508.28;5126121;28;20036;-70
2022/04/27 11:33:19;;;;;;;6.15;4.07;;;;;;;11.49;62.94;99509.66;5126395;28;20081;-70
2022/04/27 11:35:52;;;;;;;4.60;3.55;;;;;;;11.45;62.48;99516.94;5126076;28;20080;-70
2022/04/27 11:38:35;;;;;;;4.03;3.20;;;;;;;11.41;62.41;99518.03;5126372;28;20044;-69
2022/04/27 11:41:14;;;;;;;4.32;3.55;;;;;;;11.16;62.52;99475.25;5126542;28;20077;-70
2022/04/27 11:43:47;;;;;;;4.82;3.78;;;;;;;9.88;62.92;99271.09;5126418;28;20047;-70
2022/04/27 11:46:20;;;;;;;4.35;3.45;;;;;;;10.19;62.97;99363.00;5126546;28;20234;-70
2022/04/27 11:48:52;;;;;;;4.85;4.10;;;;;;;11.32;63.35;99515.03;5125595;28;20065;-70
2022/04/27 11:51:26;;;;;;;4.15;3.15;;;;;;;11.08;62.59;99456.25;5125506;28;20058;-70
2022/04/27 11:53:58;;;;;;;5.10;4.03;;;;;;;11.43;62.93;99504.69;5126137;28;20226;-70
2022/04/27 11:56:38;;;;;;;4.78;3.38;;;;;;;11.55;62.58;99502.19;5125392;28;20039;-70
2022/04/27 11:59:10;;;;;;;6.38;4.38;;;;;;;11.78;62.24;99498.22;5126121;28;20035;-70
2022/04/27 12:01:51;;;;;;;4.53;3.30;;;;;;;11.56;61.43;99461.44;5125202;28;20297;-70
2022/04/27 12:04:23;;;;;;;5.10;3.22;;;;;;;12.06;61.38;99505.47;5125850;28;20084;-69
2022/04/27 12:06:57;;;;;;;6.50;3.42;;;;;;;11.84;61.19;99439.44;5126293;28;20044;-70
2022/04/27 12:09:29;;;;;;;5.53;3.70;;;;;;;12.22;61.19;99486.84;5125967;28;20039;-70
2022/04/27 12:12:07;;;;;;;6.55;4.05;;;;;;;12.29;60.12;99487.34;5125136;28;20040;-70
2022/04/27 12:14:40;;;;;;;6.18;4.78;;;;;;;12.03;60.54;99473.78;5125065;28;20051;-69
2022/04/27 12:17:46;;;;;;;5.72;4.22;;;;;;;12.04;59.86;99456.03;5126174;28;20043;-70
2022/04/27 12:20:30;;;;;;;6.70;3.60;;;;;;;12.19;59.83;99495.84;5125848;28;20049;-70
2022/04/27 12:23:02;;;;;;;4.43;2.75;;;;;;;12.27;60.57;99514.00;5125366;28;20288;-70
2022/04/27 12:25:34;;;;;;;5.57;3.38;;;;;;;12.23;59.76;99482.38;5125410;28;20055;-70
2022/04/27 12:28:06;;;;;;;6.10;4.50;;;;;;;12.18;59.84;99480.00;5125096;28;20151;-69
2022/04/27 12:30:49;;;;;;;4.72;3.83;;;;;;;12.12;59.19;99483.00;5124629;28;20075;-70